createdAt,value
2018-09-26T00:01:00.287Z,1.60
2018-09-26T00:06:03.905Z,2.10
2018-09-26T00:11:07.631Z,1.70
2018-09-26T00:16:11.371Z,1.60
2018-09-26T00:21:15.300Z,1.93
2018-09-26T00:26:18.909Z,1.63
2018-09-26T00:31:25.004Z,1.70
2018-09-26T00:36:28.727Z,1.57
2018-09-26T00:41:32.323Z,1.50
2018-09-26T00:46:35.900Z,1.53
2018-09-26T00:51:39.498Z,1.40
2018-09-26T00:56:43.944Z,1.77
2018-09-26T01:01:47.772Z,1.57
2018-09-26T01:06:51.791Z,1.50
2018-09-26T01:11:55.492Z,1.37
2018-09-26T01:17:00.151Z,1.97
2018-09-26T01:22:03.992Z,1.70
2018-09-26T01:27:07.777Z,1.40
2018-09-26T01:32:11.374Z,1.40
2018-09-26T01:37:15.086Z,1.83
2018-09-26T01:42:19.208Z,1.73
2018-09-26T01:47:23.264Z,1.70
2018-09-26T01:52:26.859Z,1.70
2018-09-26T01:57:30.605Z,2.00
2018-09-26T02:02:34.619Z,1.70
2018-09-26T02:07:38.486Z,1.90
2018-09-26T02:12:42.315Z,1.70
2018-09-26T02:17:45.840Z,1.83
2018-09-26T02:22:49.459Z,1.53
2018-09-26T02:27:53.031Z,1.70
2018-09-26T02:32:57.023Z,1.50
2018-09-26T02:38:00.617Z,1.60
2018-09-26T02:43:04.286Z,1.80
2018-09-26T02:48:07.895Z,1.70
2018-09-26T02:53:13.580Z,1.90
2018-09-26T02:58:18.568Z,1.37
2018-09-26T03:03:22.119Z,1.30
2018-09-26T03:08:25.705Z,1.30
2018-09-26T03:13:29.315Z,1.53
2018-09-26T03:18:32.882Z,1.60
2018-09-26T03:23:36.710Z,1.50
2018-09-26T03:28:40.783Z,2.10
2018-09-26T03:33:44.487Z,1.80
2018-09-26T03:38:48.004Z,1.73
2018-09-26T03:43:52.482Z,1.40
2018-09-26T03:48:56.067Z,1.80
2018-09-26T03:54:00.113Z,1.60
2018-09-26T03:59:03.697Z,1.80
2018-09-26T04:04:07.300Z,1.93
2018-09-26T04:09:13.038Z,1.90
2018-09-26T04:14:17.600Z,2.10
2018-09-26T04:19:21.195Z,1.77
2018-09-26T04:24:24.819Z,2.00
2018-09-26T04:29:28.368Z,1.70
2018-09-26T04:34:39.559Z,2.00
2018-09-26T04:39:43.126Z,1.83
2018-09-26T04:44:46.727Z,1.80
2018-09-26T04:49:50.816Z,1.93
2018-09-26T04:55:08.791Z,1.63
2018-09-26T05:00:12.884Z,1.90
2018-09-26T05:05:16.467Z,1.77
2018-09-26T05:10:21.052Z,2.50
2018-09-26T05:15:24.628Z,1.60
2018-09-26T05:20:28.841Z,1.90
2018-09-26T05:25:32.637Z,1.93
2018-09-26T05:30:36.204Z,1.90
2018-09-26T05:35:39.794Z,2.30
2018-09-26T05:40:43.394Z,2.37
2018-09-26T05:45:46.991Z,2.10
2018-09-26T05:50:54.094Z,2.07
2018-09-26T05:55:57.674Z,2.47
2018-09-26T06:01:01.497Z,1.83
2018-09-26T06:06:05.126Z,3.00
2018-09-26T06:11:08.709Z,3.20
2018-09-26T06:16:12.315Z,2.73
2018-09-26T06:21:15.899Z,3.00
2018-09-26T06:26:19.464Z,3.10
2018-09-26T06:31:23.052Z,3.20
2018-09-26T06:36:26.767Z,3.00
2018-09-26T06:41:32.631Z,2.30
2018-09-26T06:46:36.235Z,2.23
2018-09-26T06:51:39.786Z,2.70
2018-09-26T06:56:43.410Z,2.40
2018-09-26T07:01:46.975Z,2.50
2018-09-26T07:06:51.368Z,2.33
2018-09-26T07:11:55.031Z,2.47
2018-09-26T07:16:59.851Z,2.80
2018-09-26T07:22:03.930Z,2.23
2018-09-26T07:27:07.521Z,2.83
2018-09-26T07:32:11.124Z,2.80
2018-09-26T07:37:15.112Z,2.90
2018-09-26T07:42:20.620Z,3.00
2018-09-26T07:47:24.192Z,2.77
2018-09-26T07:52:27.784Z,2.80
2018-09-26T07:57:32.407Z,3.33
2018-09-26T08:02:36.540Z,3.00
2018-09-26T08:07:40.951Z,3.23
2018-09-26T08:12:44.560Z,3.30
2018-09-26T08:17:56.251Z,3.20
2018-09-26T08:23:00.096Z,3.40
2018-09-26T08:28:03.727Z,2.80
2018-09-26T08:33:07.335Z,3.37
2018-09-26T08:38:13.995Z,2.90
2018-09-26T08:43:17.785Z,2.20
2018-09-26T08:48:21.527Z,2.80
2018-09-26T08:53:25.113Z,2.80
2018-09-26T08:58:28.746Z,3.17
2018-09-26T09:03:33.069Z,2.63
2018-09-26T09:08:37.648Z,2.40
2018-09-26T09:13:41.256Z,2.60
2018-09-26T09:18:44.834Z,2.27
2018-09-26T09:23:51.276Z,2.43
2018-09-26T09:28:55.190Z,2.83
2018-09-26T09:33:58.845Z,3.17
2018-09-26T09:39:02.438Z,3.00
2018-09-26T09:44:09.259Z,3.27
2018-09-26T09:49:12.860Z,4.13
2018-09-26T09:54:16.674Z,2.80
2018-09-26T09:59:20.267Z,3.83
2018-09-26T10:04:23.854Z,3.50
2018-09-26T10:09:37.661Z,3.47
2018-09-26T10:14:41.287Z,3.70
2018-09-26T10:19:46.283Z,3.80
2018-09-26T10:24:51.444Z,5.80
2018-09-26T10:29:55.069Z,4.10
2018-09-26T10:34:58.698Z,4.40
2018-09-26T10:40:03.336Z,4.17
2018-09-26T10:45:07.428Z,4.47
2018-09-26T10:50:11.714Z,4.57
2018-09-26T10:55:15.271Z,4.13
2018-09-26T11:00:18.885Z,4.23
2018-09-26T11:05:22.828Z,4.90
2018-09-26T11:10:26.544Z,4.30
2018-09-26T11:15:30.773Z,5.00
2018-09-26T11:20:34.396Z,7.73
2018-09-26T11:25:38.012Z,4.87
2018-09-26T11:30:41.565Z,4.87
2018-09-26T11:35:46.408Z,4.67
2018-09-26T11:40:50.331Z,4.20
2018-09-26T11:45:53.940Z,4.23
2018-09-26T11:50:57.283Z,4.33
2018-09-26T11:56:01.160Z,3.80
2018-09-26T12:01:04.773Z,3.87
2018-09-26T12:06:08.431Z,4.03
2018-09-26T12:11:12.404Z,4.30
2018-09-26T12:16:16.097Z,4.30
2018-09-26T12:21:30.353Z,3.90
2018-09-26T12:26:24.592Z,4.07
2018-09-26T12:31:28.249Z,4.53
2018-09-26T12:36:32.316Z,5.97
2018-09-26T12:41:36.005Z,4.90
2018-09-26T12:46:39.615Z,5.20
2018-09-26T12:51:43.455Z,6.10
2018-09-26T12:56:46.688Z,6.37
2018-09-26T13:01:50.254Z,6.17
2018-09-26T13:06:55.195Z,5.70
2018-09-26T13:11:58.774Z,5.90
2018-09-26T13:17:03.106Z,5.73
2018-09-26T13:22:06.787Z,9.50
2018-09-26T13:27:10.875Z,6.07
2018-09-26T13:32:14.478Z,5.70
2018-09-26T13:37:18.089Z,6.30
2018-09-26T13:42:22.369Z,5.40
2018-09-26T13:47:28.311Z,6.00
2018-09-26T13:52:32.600Z,5.77
2018-09-26T13:57:36.490Z,5.60
2018-09-26T14:02:40.597Z,6.77
2018-09-26T14:07:44.211Z,5.33
2018-09-26T14:12:47.827Z,6.20
2018-09-26T14:17:51.398Z,5.77
2018-09-26T14:22:55.238Z,5.67
2018-09-26T14:27:59.211Z,5.50
2018-09-26T14:33:03.111Z,5.20
2018-09-26T14:38:06.947Z,6.00
2018-09-26T14:43:21.661Z,5.60
2018-09-26T14:48:25.962Z,5.03
2018-09-26T14:53:36.337Z,5.50
2018-09-26T14:58:41.141Z,6.10
2018-09-26T15:03:45.140Z,5.80
2018-09-26T15:08:51.738Z,7.37
2018-09-26T15:13:59.306Z,8.27
2018-09-26T15:19:07.979Z,7.57
2018-09-26T15:24:12.059Z,8.07
2018-09-26T15:29:17.491Z,12.40
2018-09-26T15:34:21.841Z,8.40
2018-09-26T15:39:25.532Z,8.23
2018-09-26T15:44:29.332Z,8.70
2018-09-26T15:49:33.145Z,8.00
2018-09-26T15:54:36.921Z,9.33
2018-09-26T15:59:40.831Z,8.80
2018-09-26T16:04:44.428Z,9.17
2018-09-26T16:09:48.761Z,8.07
2018-09-26T16:14:52.943Z,8.60
2018-09-26T16:19:56.731Z,8.97
2018-09-26T16:25:00.783Z,8.40
2018-09-26T16:30:08.420Z,8.20
2018-09-26T16:35:12.004Z,8.67
2018-09-26T16:40:15.777Z,8.50
2018-09-26T16:45:19.432Z,8.80
2018-09-26T16:50:23.067Z,8.43
2018-09-26T16:55:26.664Z,8.03
2018-09-26T17:00:30.241Z,8.13
2018-09-26T17:05:35.376Z,7.80
2018-09-26T17:10:39.227Z,5.80
2018-09-26T17:15:43.615Z,7.37
2018-09-26T17:20:47.216Z,8.80
2018-09-26T17:25:50.803Z,8.40
2018-09-26T17:30:54.716Z,5.27
2018-09-26T17:35:58.280Z,5.40
2018-09-26T17:41:01.898Z,5.30
2018-09-26T17:46:05.495Z,5.10
2018-09-26T17:51:09.084Z,5.50
2018-09-26T17:56:13.034Z,4.70
2018-09-26T18:01:16.706Z,4.97
2018-09-26T18:06:20.457Z,4.47
2018-09-26T18:11:24.058Z,4.60
2018-09-26T18:16:28.084Z,5.43
2018-09-26T18:21:32.257Z,5.53
2018-09-26T18:26:40.402Z,5.20
2018-09-26T18:31:43.947Z,5.87
2018-09-26T18:36:47.523Z,6.63
2018-09-26T18:41:50.786Z,8.53
2018-09-26T18:46:55.080Z,12.60
2018-09-26T18:51:58.615Z,12.87
2018-09-26T18:57:02.223Z,10.90
2018-09-26T19:02:05.804Z,9.20
2018-09-26T19:07:09.902Z,9.57
2018-09-26T19:12:13.595Z,9.30
2018-09-26T19:17:17.118Z,7.33
2018-09-26T19:22:21.112Z,13.63
2018-09-26T19:27:24.760Z,14.80
2018-09-26T19:32:28.637Z,11.13
2018-09-26T19:37:32.288Z,13.23
2018-09-26T19:42:35.888Z,11.57
2018-09-26T19:47:39.460Z,10.70
2018-09-26T19:52:43.058Z,12.10
2018-09-26T19:57:46.820Z,11.17
2018-09-26T20:02:50.391Z,10.17
2018-09-26T20:07:53.983Z,9.37
2018-09-26T20:13:20.363Z,9.47
2018-09-26T20:18:23.947Z,9.20
2018-09-26T20:23:27.977Z,8.53
2018-09-26T20:28:31.470Z,7.90
2018-09-26T20:33:34.725Z,7.40
2018-09-26T20:38:38.387Z,6.93
2018-09-26T20:43:42.226Z,7.00
2018-09-26T20:48:46.107Z,6.17
2018-09-26T20:53:49.910Z,5.83
2018-09-26T20:58:53.518Z,6.00
2018-09-26T21:03:57.092Z,6.93
2018-09-26T21:09:01.808Z,6.30
2018-09-26T21:14:05.126Z,6.87
2018-09-26T21:19:08.771Z,10.40
2018-09-26T21:24:12.744Z,7.17
2018-09-26T21:29:16.339Z,7.47
2018-09-26T21:34:19.920Z,5.90
2018-09-26T21:39:23.522Z,5.90
2018-09-26T21:44:27.537Z,5.50
2018-09-26T21:49:31.095Z,5.90
2018-09-26T21:54:35.025Z,6.27
2018-09-26T21:59:38.574Z,6.30
2018-09-26T22:04:42.368Z,6.17
2018-09-26T22:09:45.917Z,6.77
2018-09-26T22:14:49.582Z,6.27
2018-09-26T22:19:54.007Z,6.23
2018-09-26T22:24:57.888Z,6.70
2018-09-26T22:30:01.496Z,6.80
2018-09-26T22:35:07.034Z,7.03
2018-09-26T22:40:10.603Z,7.20
2018-09-26T22:45:14.523Z,6.07
2018-09-26T22:50:18.076Z,5.90
2018-09-26T22:55:21.738Z,6.73
2018-09-26T23:00:25.575Z,7.10
2018-09-26T23:05:29.418Z,6.00
2018-09-26T23:10:33.108Z,6.50
2018-09-26T23:15:36.712Z,6.70
2018-09-26T23:20:40.283Z,6.90
2018-09-26T23:25:44.091Z,7.63
2018-09-26T23:30:47.708Z,6.33
2018-09-26T23:35:57.373Z,7.20
2018-09-26T23:41:00.963Z,6.33
2018-09-26T23:46:06.515Z,7.37
2018-09-26T23:51:10.088Z,7.30
2018-09-26T23:56:13.934Z,7.20
